Time;durP1;ratioP1;P1;durP2;ratioP2;P2;SDS_P1;SDS_P2;PMS_P1;PMS_P2;Temp;Humidity;BMP_temperature;BMP_pressure;BME280_temperature;BME280_humidity;BME280_pressure;Samples;Min_cycle;Max_cycle;Signal;HPM_P1;HPM_P2
2022/01/30 00:00:42;;;;;;;0.10;0.00;;;;;;;5.05;81.29;102540.56;4935970;29;20039;-89
2022/01/30 00:03:07;;;;;;;0.17;0.00;;;;;;;5.04;81.14;102546.94;4918925;29;20036;-88
2022/01/30 00:05:34;;;;;;;0.28;0.00;;;;;;;4.95;81.45;102531.63;4902476;29;20036;-88
2022/01/30 00:08:00;;;;;;;1.52;0.45;;;;;;;4.97;81.83;102541.22;4918517;29;20417;-89
2022/01/30 00:10:26;;;;;;;4.53;1.02;;;;;;;5.09;81.24;102569.75;4918647;29;20122;-88
2022/01/30 00:12:58;;;;;;;5.05;0.90;;;;;;;4.98;81.49;102566.31;4902812;29;20122;-88
2022/01/30 00:15:38;;;;;;;0.53;0.10;;;;;;;4.71;81.33;102517.53;4889091;29;20142;-88
2022/01/30 00:18:38;;;;;;;13.25;2.80;;;;;;;4.82;81.34;102550.69;4904662;29;20400;-88
2022/01/30 00:21:16;;;;;;;0.13;0.00;;;;;;;4.69;81.56;102527.53;4933326;29;20050;-88
2022/01/30 00:23:50;;;;;;;10.85;1.88;;;;;;;4.91;81.62;102571.38;4918177;29;20043;-88
2022/01/30 00:26:18;;;;;;;22.67;4.80;;;;;;;4.84;81.83;102576.47;4903860;29;20040;-87
2022/01/30 00:28:43;;;;;;;28.17;4.85;;;;;;;4.64;81.58;102547.78;4918635;29;20028;-88
2022/01/30 00:31:09;;;;;;;3.20;0.63;;;;;;;4.69;81.80;102567.03;4925709;29;20468;-89
2022/01/30 00:33:34;;;;;;;5.38;1.30;;;;;;;4.71;82.24;102579.38;4902958;29;20468;-89
2022/01/30 00:36:00;;;;;;;0.03;0.00;;;;;;;4.51;81.99;102562.28;4935357;29;20115;-89
2022/01/30 00:38:26;;;;;;;18.70;3.90;;;;;;;4.35;82.30;102532.34;4918838;29;20039;-88
2022/01/30 00:40:53;;;;;;;13.05;2.78;;;;;;;4.71;82.44;102600.88;4918094;29;20083;-88
2022/01/30 00:43:19;;;;;;;2.50;0.52;;;;;;;4.72;82.19;102591.84;4935206;29;20063;-88
2022/01/30 00:45:48;;;;;;;3.30;0.90;;;;;;;4.52;81.47;102553.25;4918466;29;20080;-88
2022/01/30 00:48:14;;;;;;;5.00;1.02;;;;;;;4.75;81.97;102590.69;4918903;29;20500;-89
2022/01/30 00:50:39;;;;;;;23.23;5.13;;;;;;;4.44;81.77;102553.03;4918750;29;20036;-89
2022/01/30 00:53:06;;;;;;;20.52;4.55;;;;;;;4.72;81.61;102594.53;4902128;29;20054;-88
2022/01/30 00:55:32;;;;;;;6.82;1.42;;;;;;;4.71;81.91;102595.50;4918535;29;20499;-88
2022/01/30 00:57:58;;;;;;;0.43;0.10;;;;;;;4.49;82.31;102566.09;4918041;29;20048;-88
2022/01/30 01:00:28;;;;;;;26.20;5.18;;;;;;;4.63;82.00;102600.69;4917417;29;20047;-88
2022/01/30 01:02:53;;;;;;;27.35;5.35;;;;;;;4.51;82.76;102582.94;4918123;29;20389;-88
2022/01/30 01:05:20;;;;;;;28.20;5.07;;;;;;;4.57;82.46;102596.69;4933452;29;20046;-88
2022/01/30 01:07:48;;;;;;;29.30;5.38;;;;;;;4.53;82.84;102592.59;4917951;29;20116;-88
2022/01/30 01:13:08;;;;;;;26.20;5.60;;;;;;;4.53;83.42;102618.59;4918110;29;20040;-88
2022/01/30 01:23:52;;;;;;;30.33;4.65;;;;;;;4.41;84.04;102614.28;4920206;29;20041;-88
2022/01/30 01:26:19;;;;;;;31.30;5.97;;;;;;;4.20;84.22;102578.34;4935070;29;20039;-88
2022/01/30 01:28:45;;;;;;;27.08;5.15;;;;;;;4.46;84.04;102617.41;4934518;29;20110;-89
2022/01/30 01:31:13;;;;;;;32.55;5.40;;;;;;;4.30;84.55;102588.34;4935012;29;20036;-88
2022/01/30 01:36:05;;;;;;;29.15;5.40;;;;;;;4.33;84.43;102599.66;4934974;29;20043;-88
2022/01/30 01:38:30;;;;;;;33.65;5.60;;;;;;;4.09;84.39;102570.38;4917741;29;20511;-88
2022/01/30 01:40:56;;;;;;;26.88;4.78;;;;;;;4.39;84.27;102626.00;4917940;29;20565;-88
2022/01/30 01:43:24;;;;;;;26.67;4.75;;;;;;;4.37;84.40;102632.50;4917765;29;20111;-88
2022/01/30 01:45:55;;;;;;;31.35;5.30;;;;;;;4.38;84.34;102631.50;4917514;29;20035;-88
2022/01/30 01:48:21;;;;;;;27.92;5.10;;;;;;;4.04;84.22;102581.50;4917728;29;20098;-88
2022/01/30 01:50:55;;;;;;;29.73;5.63;;;;;;;4.30;84.52;102640.22;4917990;29;20032;-88
2022/01/30 01:53:24;;;;;;;24.85;4.85;;;;;;;4.03;84.68;102603.09;4921076;29;20035;-88
2022/01/30 01:55:51;;;;;;;32.47;5.50;;;;;;;3.90;85.23;102583.63;4905199;29;20073;-88
2022/01/30 01:58:16;;;;;;;28.33;5.20;;;;;;;3.83;85.45;102589.53;4920968;29;20039;-88
2022/01/30 02:00:45;;;;;;;26.55;4.75;;;;;;;3.99;85.74;102624.00;4937996;29;20095;-88
2022/01/30 02:03:11;;;;;;;35.63;5.53;;;;;;;3.66;85.57;102579.31;4920858;29;20062;-88
2022/01/30 02:05:47;;;;;;;33.35;5.15;;;;;;;3.58;85.84;102569.25;4938074;29;20552;-88
2022/01/30 02:27:04;;;;;;;29.85;4.85;;;;;;;4.00;87.12;102606.94;4920968;29;20031;-88
2022/01/30 02:29:29;;;;;;;28.98;5.95;;;;;;;3.72;87.22;102562.75;4920474;29;20373;-89
2022/01/30 02:31:59;;;;;;;29.95;5.10;;;;;;;4.03;87.49;102616.53;4920317;29;20032;-89
2022/01/30 02:34:27;;;;;;;27.17;5.30;;;;;;;3.94;87.22;102618.19;4904999;29;20036;-89
2022/01/30 02:36:53;;;;;;;32.28;5.10;;;;;;;3.98;87.21;102624.97;4920161;29;20024;-89
2022/01/30 02:39:19;;;;;;;28.17;4.53;;;;;;;3.76;87.41;102584.81;4920239;29;20047;-88
2022/01/30 02:41:48;;;;;;;26.35;4.45;;;;;;;3.75;87.75;102605.44;4919977;29;20036;-89
2022/01/30 02:44:24;;;;;;;27.58;5.03;;;;;;;3.62;88.15;102594.00;4920074;29;20131;-88
2022/01/30 02:46:53;;;;;;;25.42;5.43;;;;;;;3.50;88.29;102591.34;4921859;29;20039;-88
2022/01/30 02:52:00;;;;;;;32.33;5.18;;;;;;;3.20;88.48;102567.84;4937427;29;20040;-88
2022/01/30 02:54:27;;;;;;;26.50;4.97;;;;;;;3.34;88.78;102597.09;4937413;29;20032;-88
2022/01/30 02:56:53;;;;;;;29.52;5.30;;;;;;;3.23;89.10;102589.06;4919817;29;20027;-89
2022/01/30 02:59:19;;;;;;;27.13;4.32;;;;;;;3.34;89.18;102613.22;4919643;29;20031;-88
2022/01/30 03:01:44;;;;;;;26.80;4.78;;;;;;;3.40;89.19;102635.16;4888375;29;20039;-88
2022/01/30 03:04:10;;;;;;;28.10;4.65;;;;;;;3.21;89.06;102603.59;4919998;29;20156;-88
2022/01/30 03:06:36;;;;;;;26.15;5.10;;;;;;;3.25;89.31;102618.44;4919563;29;20400;-89
2022/01/30 03:09:05;;;;;;;33.35;5.18;;;;;;;3.12;89.53;102611.41;4919448;29;20028;-89
2022/01/30 03:11:34;;;;;;;28.92;4.78;;;;;;;3.30;89.75;102646.63;4919747;29;20032;-88
2022/01/30 03:14:00;;;;;;;28.58;4.07;;;;;;;3.27;90.25;102654.06;4936576;29;20066;-87
2022/01/30 03:16:26;;;;;;;31.88;4.90;;;;;;;3.11;90.23;102617.72;4929171;29;20130;-88
2022/01/30 03:18:51;;;;;;;25.75;4.78;;;;;;;3.16;90.50;102638.84;4903804;29;20598;-88
2022/01/30 03:21:17;;;;;;;27.35;5.00;;;;;;;3.27;90.51;102660.28;4903764;29;20047;-88
2022/01/30 03:23:43;;;;;;;31.55;5.35;;;;;;;3.10;90.73;102629.47;4887915;29;20111;-88
2022/01/30 03:26:11;;;;;;;31.50;4.95;;;;;;;3.35;90.72;102662.34;4936170;29;20076;-88
2022/01/30 03:28:39;;;;;;;30.80;5.10;;;;;;;3.49;90.14;102666.63;4919709;29;20056;-88
2022/01/30 03:31:06;;;;;;;27.65;4.82;;;;;;;3.58;89.99;102665.03;4903542;29;20039;-88
2022/01/30 03:33:36;;;;;;;30.98;5.05;;;;;;;3.64;89.71;102676.09;4903767;29;20036;-88
2022/01/30 03:36:14;;;;;;;30.25;5.60;;;;;;;3.31;89.96;102612.63;4919330;29;20384;-88
2022/01/30 03:38:40;;;;;;;27.33;4.72;;;;;;;3.75;89.64;102685.09;4919175;29;20077;-88
2022/01/30 03:41:05;;;;;;;23.90;4.65;;;;;;;3.77;89.76;102694.75;4919126;29;20381;-88
2022/01/30 03:43:38;;;;;;;29.75;4.72;;;;;;;3.54;90.12;102650.13;4918802;29;20039;-88
2022/01/30 03:46:05;;;;;;;28.83;5.78;;;;;;;3.83;89.60;102701.47;4918843;29;20046;-88
2022/01/30 03:48:50;;;;;;;29.80;4.93;;;;;;;3.75;89.82;102680.63;4935714;29;20024;-88
2022/01/30 03:51:16;;;;;;;29.17;4.93;;;;;;;3.49;89.30;102639.78;4934365;29;20036;-88
2022/01/30 03:53:42;;;;;;;28.30;4.85;;;;;;;3.54;89.76;102640.25;4919570;29;20054;-89
2022/01/30 03:56:08;;;;;;;27.05;4.30;;;;;;;3.70;89.63;102669.38;4920970;29;20074;-88
2022/01/30 03:58:38;;;;;;;30.20;4.63;;;;;;;3.60;89.46;102649.63;4940820;29;20465;-89
2022/01/30 04:01:04;;;;;;;26.25;4.63;;;;;;;3.56;89.43;102650.84;4920378;29;20096;-89
2022/01/30 04:03:29;;;;;;;29.90;5.07;;;;;;;3.63;89.08;102652.94;4935756;29;20111;-89
2022/01/30 04:05:55;;;;;;;29.42;5.40;;;;;;;3.85;89.18;102681.56;4903298;29;20437;-89
2022/01/30 04:08:21;;;;;;;28.35;5.35;;;;;;;3.65;88.90;102650.13;4918594;29;20040;-89
2022/01/30 04:10:47;;;;;;;28.70;5.10;;;;;;;4.00;88.75;102694.69;4935898;29;20035;-88
2022/01/30 04:13:15;;;;;;;30.77;5.63;;;;;;;3.94;88.50;102684.47;4918610;29;20088;-89
2022/01/30 04:15:41;;;;;;;35.78;5.40;;;;;;;3.89;87.89;102675.94;4917753;29;20078;-88
2022/01/30 04:18:07;;;;;;;26.13;4.53;;;;;;;3.79;88.25;102659.72;4903030;29;20059;-89
2022/01/30 04:20:33;;;;;;;34.10;4.80;;;;;;;4.11;87.48;102713.47;4918636;29;20040;-89
2022/01/30 04:23:00;;;;;;;32.80;5.25;;;;;;;4.16;87.35;102705.03;4903010;29;20396;-88
2022/01/30 04:25:26;;;;;;;26.73;4.93;;;;;;;4.16;87.32;102699.66;4935700;29;20044;-88
2022/01/30 04:27:52;;;;;;;23.75;4.30;;;;;;;4.19;87.00;102700.25;4918424;29;20396;-89
2022/01/30 04:30:17;;;;;;;28.75;5.00;;;;;;;4.37;86.68;102718.50;4918787;29;20552;-89
2022/01/30 04:32:44;;;;;;;30.88;5.28;;;;;;;4.36;86.78;102725.72;4918630;29;20031;-89
2022/01/30 04:35:15;;;;;;;28.20;4.75;;;;;;;4.16;86.85;102688.91;4918930;29;20035;-89
2022/01/30 04:40:21;;;;;;;;;;;;;;;4.47;86.96;102729.34;4936253;29;20039;-89
2022/01/30 04:59:13;;;;;;;30.35;5.63;;;;;;;4.55;84.12;102748.38;4935208;29;20067;-88
2022/01/30 05:01:56;;;;;;;28.25;4.70;;;;;;;4.36;84.54;102728.41;4935020;29;20039;-89
2022/01/30 05:09:32;;;;;;;24.85;4.50;;;;;;;3.82;84.85;102702.44;4902597;29;20039;-88
2022/01/30 05:11:58;;;;;;;25.05;4.60;;;;;;;4.14;85.08;102766.09;4918268;29;20035;-89
2022/01/30 05:14:26;;;;;;;24.17;4.38;;;;;;;3.83;85.45;102726.47;4918048;29;20027;-87
2022/01/30 05:16:55;;;;;;;27.35;4.80;;;;;;;3.99;85.59;102771.75;4918483;29;20059;-89
2022/01/30 05:19:21;;;;;;;24.80;4.13;;;;;;;3.76;86.08;102749.44;4906476;29;20046;-88
2022/01/30 05:21:47;;;;;;;27.45;4.45;;;;;;;3.56;86.32;102723.31;4917847;29;20028;-88
2022/01/30 05:24:12;;;;;;;29.27;4.25;;;;;;;3.73;86.26;102756.88;4918225;29;20038;-88
2022/01/30 05:26:43;;;;;;;25.02;4.25;;;;;;;3.76;86.68;102780.81;4919870;29;20039;-88
2022/01/30 05:29:09;;;;;;;27.92;4.60;;;;;;;3.48;86.88;102727.50;4938432;29;20116;-89
2022/01/30 05:31:37;;;;;;;25.35;4.40;;;;;;;3.61;87.14;102751.50;4906008;29;20093;-88
2022/01/30 05:34:03;;;;;;;27.13;5.35;;;;;;;3.26;86.92;102703.34;4921779;29;20046;-88
2022/01/30 05:36:30;;;;;;;25.55;4.22;;;;;;;3.18;87.36;102705.78;4921197;29;20031;-89
2022/01/30 05:38:56;;;;;;;25.55;4.47;;;;;;;3.25;87.30;102729.31;4905719;29;20539;-88
2022/01/30 05:41:22;;;;;;;25.95;4.20;;;;;;;3.37;87.84;102751.66;4921177;29;20169;-88
2022/01/30 05:43:51;;;;;;;26.42;4.25;;;;;;;3.47;87.26;102775.91;4921145;29;20099;-88
2022/01/30 05:46:29;;;;;;;26.75;5.03;;;;;;;3.45;87.41;102777.88;4890906;29;20035;-88
2022/01/30 05:48:55;;;;;;;23.85;4.40;;;;;;;3.48;87.22;102791.91;4920991;29;20028;-88
2022/01/30 05:51:23;;;;;;;25.63;4.07;;;;;;;3.34;86.97;102776.88;4904973;29;20514;-88
2022/01/30 05:53:49;;;;;;;27.33;4.32;;;;;;;3.39;86.88;102797.16;4904992;29;20035;-87
2022/01/30 05:56:14;;;;;;;31.52;4.35;;;;;;;3.07;86.91;102753.09;4938071;29;20461;-87
2022/01/30 05:58:46;;;;;;;24.45;4.00;;;;;;;3.24;86.95;102778.56;4905154;29;20036;-88
2022/01/30 06:01:15;;;;;;;23.30;4.03;;;;;;;3.01;86.97;102747.31;4920862;29;20031;-88
2022/01/30 06:03:40;;;;;;;21.90;3.88;;;;;;;2.88;87.18;102731.31;4920897;29;20034;-87
2022/01/30 06:06:07;;;;;;;25.73;4.68;;;;;;;2.83;87.12;102738.88;4920722;29;20114;-88
2022/01/30 06:08:57;;;;;;;24.02;3.65;;;;;;;3.10;87.14;102781.47;4920727;29;20076;-88
2022/01/30 06:11:23;;;;;;;22.05;3.90;;;;;;;2.87;87.13;102756.44;4907384;29;20043;-88
2022/01/30 06:13:48;;;;;;;21.50;4.10;;;;;;;2.84;87.28;102752.16;4920697;29;20040;-88
2022/01/30 06:16:14;;;;;;;26.60;4.38;;;;;;;3.13;87.29;102800.00;4920153;29;20051;-87
2022/01/30 06:18:40;;;;;;;23.05;4.63;;;;;;;2.97;86.86;102769.03;4920489;29;20496;-88
2022/01/30 06:21:05;;;;;;;24.60;3.90;;;;;;;2.92;86.58;102743.53;4905223;29;20139;-88
2022/01/30 06:23:31;;;;;;;23.13;3.85;;;;;;;3.17;86.39;102769.28;4889131;29;20484;-88
2022/01/30 06:25:58;;;;;;;21.40;4.00;;;;;;;3.49;85.92;102801.66;4889346;29;20071;-88
2022/01/30 06:28:24;;;;;;;21.50;4.00;;;;;;;3.52;85.46;102797.88;4937454;29;20039;-89
2022/01/30 06:30:49;;;;;;;23.00;3.80;;;;;;;3.27;85.01;102750.66;4904508;29;20422;-88
2022/01/30 06:33:15;;;;;;;26.83;4.28;;;;;;;3.30;84.52;102735.16;4937271;29;20473;-88
2022/01/30 06:35:43;;;;;;;22.33;3.80;;;;;;;3.38;83.92;102739.06;4920671;29;20035;-91
2022/01/30 06:38:09;;;;;;;20.15;4.13;;;;;;;3.56;84.02;102751.03;4905260;29;20437;-90
2022/01/30 06:40:34;;;;;;;20.05;3.42;;;;;;;4.07;83.21;102802.50;4937530;29;20027;-90
2022/01/30 06:43:00;;;;;;;21.38;3.90;;;;;;;4.09;82.48;102797.84;4889484;29;20388;-87
2022/01/30 06:45:27;;;;;;;17.13;4.10;;;;;;;3.80;82.31;102739.31;4904625;29;20020;-90
2022/01/30 06:47:54;;;;;;;23.25;3.50;;;;;;;3.99;81.95;102769.06;4905871;29;20046;-89
2022/01/30 06:50:20;;;;;;;20.92;3.22;;;;;;;3.85;81.79;102742.47;4908733;29;20107;-89
2022/01/30 06:52:46;;;;;;;24.75;4.00;;;;;;;3.89;82.38;102757.34;4919972;29;20123;-85
2022/01/30 06:55:11;;;;;;;20.98;3.40;;;;;;;4.12;82.82;102803.84;4921463;29;20093;-86
2022/01/30 06:57:46;;;;;;;24.08;4.07;;;;;;;4.15;83.36;102814.34;4919609;29;20075;-86
2022/01/30 07:00:15;;;;;;;20.63;4.18;;;;;;;4.01;83.09;102788.56;4904665;29;20031;-90
2022/01/30 07:02:43;;;;;;;22.80;4.05;;;;;;;4.16;83.37;102831.31;4921510;29;20038;-91
2022/01/30 07:05:09;;;;;;;23.58;3.97;;;;;;;3.85;83.68;102793.47;4921135;29;20035;-91
2022/01/30 07:07:35;;;;;;;22.75;3.85;;;;;;;3.51;83.84;102774.69;4921188;29;20034;-91
2022/01/30 07:14:04;;;;;;;22.08;3.50;;;;;;;3.66;85.26;102843.28;4917518;29;20514;-96
2022/01/30 07:16:30;;;;;;;22.90;4.05;;;;;;;3.18;85.56;102787.09;4915645;29;20056;-86
2022/01/30 07:18:55;;;;;;;22.35;3.67;;;;;;;3.48;85.71;102852.78;4903683;29;20381;-87
2022/01/30 07:21:21;;;;;;;22.73;3.83;;;;;;;3.08;85.66;102789.63;4918741;29;20031;-88
2022/01/30 07:23:49;;;;;;;24.67;4.00;;;;;;;3.28;85.88;102830.19;4919372;29;20019;-89
2022/01/30 07:26:15;;;;;;;26.02;4.13;;;;;;;3.46;85.36;102852.06;4919358;29;20404;-85
2022/01/30 07:28:40;;;;;;;25.33;4.38;;;;;;;3.46;84.86;102865.47;4936244;29;20031;-90
2022/01/30 07:31:06;;;;;;;20.02;3.72;;;;;;;3.47;84.85;102848.38;4920576;29;20393;-91
2022/01/30 07:33:33;;;;;;;23.38;3.72;;;;;;;3.37;84.70;102840.19;4920264;29;20047;-91
2022/01/30 07:36:03;;;;;;;20.38;3.63;;;;;;;3.03;84.77;102794.50;4904937;29;20122;-90
2022/01/30 07:38:30;;;;;;;23.45;3.78;;;;;;;3.04;84.50;102808.78;4919821;29;20400;-91
2022/01/30 07:40:58;;;;;;;19.73;3.55;;;;;;;2.99;84.75;102806.44;4920230;29;20054;-91
2022/01/30 07:43:31;;;;;;;23.15;3.85;;;;;;;3.21;84.87;102862.00;4905223;29;20172;-91
2022/01/30 07:45:56;;;;;;;25.05;4.22;;;;;;;3.19;85.04;102872.00;4920628;29;20024;-91
2022/01/30 07:48:22;;;;;;;23.00;4.18;;;;;;;3.15;85.30;102871.34;4919787;29;20433;-91
2022/01/30 07:50:51;;;;;;;25.60;4.93;;;;;;;2.83;85.50;102824.69;4920587;29;20061;-91
2022/01/30 07:53:19;;;;;;;20.42;3.75;;;;;;;2.81;86.01;102822.13;4920227;29;20522;-91
2022/01/30 07:55:45;;;;;;;24.45;3.83;;;;;;;3.06;86.31;102865.84;4919718;29;20024;-91
2022/01/30 07:58:12;;;;;;;23.40;3.88;;;;;;;3.03;86.27;102868.72;4919816;29;20042;-91
2022/01/30 08:00:41;;;;;;;21.30;3.60;;;;;;;2.80;86.59;102831.13;4936052;29;20148;-90
2022/01/30 08:03:06;;;;;;;25.45;4.10;;;;;;;2.72;86.20;102818.28;4936891;29;20033;-91
2022/01/30 08:05:33;;;;;;;17.45;3.35;;;;;;;2.80;86.26;102826.63;4920171;29;20126;-91
2022/01/30 08:07:58;;;;;;;26.38;4.15;;;;;;;2.84;86.07;102829.06;4903880;29;20099;-91
2022/01/30 08:10:24;;;;;;;28.25;4.38;;;;;;;3.20;85.60;102889.78;4904157;29;20031;-91
2022/01/30 08:12:49;;;;;;;22.67;3.90;;;;;;;3.22;85.54;102890.53;4888073;29;20467;-91
2022/01/30 08:15:19;;;;;;;24.77;3.53;;;;;;;3.23;85.50;102884.16;4919718;29;20042;-90
2022/01/30 08:17:44;;;;;;;24.23;3.78;;;;;;;3.07;85.13;102867.53;4919536;29;20433;-91
2022/01/30 08:20:14;;;;;;;21.58;4.22;;;;;;;3.17;85.25;102884.66;4919712;29;20083;-91
2022/01/30 08:22:52;;;;;;;26.38;4.07;;;;;;;3.07;85.11;102860.38;4903534;29;20099;-91
2022/01/30 08:25:20;;;;;;;20.83;3.95;;;;;;;3.12;84.16;102862.69;4919891;29;20122;-91
2022/01/30 08:27:58;;;;;;;28.15;4.28;;;;;;;3.35;83.93;102898.47;4919779;29;20016;-91
2022/01/30 08:30:23;;;;;;;23.83;4.10;;;;;;;3.12;83.82;102860.84;4904308;29;20047;-91
2022/01/30 08:32:50;;;;;;;23.98;3.92;;;;;;;3.30;83.69;102890.78;4888306;29;20046;-91
2022/01/30 08:35:20;;;;;;;23.30;3.58;;;;;;;3.03;84.22;102834.75;4919561;29;20058;-91
2022/01/30 08:37:47;;;;;;;22.85;3.83;;;;;;;3.09;83.91;102855.72;4935275;29;20391;-91
2022/01/30 08:40:16;;;;;;;22.02;3.80;;;;;;;3.12;83.94;102846.59;4919167;29;20031;-91
2022/01/30 08:42:43;;;;;;;25.02;4.28;;;;;;;3.58;83.73;102909.28;4919489;29;20027;-91
2022/01/30 08:45:09;;;;;;;21.85;4.00;;;;;;;3.33;83.44;102847.63;4903648;29;20028;-91
2022/01/30 08:47:35;;;;;;;21.15;4.05;;;;;;;3.74;82.74;102887.47;4919219;29;20028;-91
2022/01/30 08:50:01;;;;;;;22.92;4.28;;;;;;;3.63;81.66;102845.34;4918998;29;20032;-91
2022/01/30 08:52:26;;;;;;;28.80;4.65;;;;;;;3.65;82.00;102840.72;4918741;29;20035;-91
2022/01/30 08:54:52;;;;;;;21.25;4.00;;;;;;;3.81;81.11;102848.41;4903369;29;20454;-91
2022/01/30 08:57:22;;;;;;;24.40;4.43;;;;;;;4.31;80.81;102912.50;4919574;29;20495;-91
2022/01/30 08:59:48;;;;;;;28.77;4.22;;;;;;;3.96;79.89;102843.66;4920032;29;20031;-91
2022/01/30 09:02:19;;;;;;;19.25;3.92;;;;;;;4.03;79.40;102844.84;4923123;29;20047;-91
2022/01/30 09:04:47;;;;;;;16.52;3.92;;;;;;;4.13;79.27;102844.97;4939833;29;20119;-90
2022/01/30 09:07:16;;;;;;;29.75;4.60;;;;;;;4.20;78.71;102852.41;4922961;29;20063;-90
2022/01/30 09:09:46;;;;;;;26.05;4.22;;;;;;;4.42;77.36;102865.97;4923186;29;20070;-90
2022/01/30 09:12:17;;;;;;;26.45;3.97;;;;;;;4.81;77.24;102925.50;4938754;29;20396;-90
2022/01/30 09:14:49;;;;;;;23.73;5.03;;;;;;;4.55;77.60;102870.19;4907797;29;20103;-90
2022/01/30 09:17:16;;;;;;;27.30;4.43;;;;;;;4.55;76.32;102856.75;4913534;29;20642;-90
2022/01/30 09:19:45;;;;;;;27.85;4.80;;;;;;;4.96;76.21;102915.31;4888414;29;20043;-90
2022/01/30 09:22:16;;;;;;;24.85;4.68;;;;;;;4.80;75.25;102886.13;4903849;29;20031;-90
2022/01/30 09:24:42;;;;;;;22.02;4.00;;;;;;;4.85;74.64;102889.31;4903644;29;20054;-90
2022/01/30 09:27:16;;;;;;;22.60;3.78;;;;;;;4.94;74.14;102867.00;4904037;29;20035;-91
2022/01/30 09:29:45;;;;;;;25.20;3.95;;;;;;;5.47;73.67;102919.13;4903338;29;20040;-91
2022/01/30 09:32:11;;;;;;;24.27;4.65;;;;;;;5.42;73.43;102888.06;4888503;29;20043;-90
2022/01/30 09:34:37;;;;;;;24.13;4.57;;;;;;;5.43;72.19;102876.31;4903350;29;20032;-90
2022/01/30 09:37:07;;;;;;;23.25;4.20;;;;;;;5.52;71.76;102871.97;4903539;29;20032;-91
2022/01/30 09:39:36;;;;;;;23.83;4.18;;;;;;;5.69;70.54;102893.91;4888246;29;20119;-91
2022/01/30 09:42:03;;;;;;;22.25;4.47;;;;;;;5.89;70.28;102909.19;4920104;29;20069;-90
2022/01/30 09:44:41;;;;;;;22.58;4.07;;;;;;;5.80;71.04;102886.59;4887589;29;20032;-91
2022/01/30 09:47:30;;;;;;;25.80;4.40;;;;;;;5.91;69.47;102899.13;4902687;29;20028;-90
2022/01/30 09:50:07;;;;;;;28.63;5.50;;;;;;;6.35;68.16;102955.53;4902326;29;20040;-91
2022/01/30 09:52:44;;;;;;;22.83;4.03;;;;;;;6.05;68.11;102899.78;4888871;29;20036;-90
2022/01/30 09:55:46;;;;;;;27.63;4.57;;;;;;;6.13;68.84;102908.91;4902933;29;20031;-91
2022/01/30 09:58:22;;;;;;;24.55;4.28;;;;;;;6.57;67.58;102956.31;4902058;29;20497;-90
2022/01/30 10:00:52;;;;;;;25.90;5.20;;;;;;;6.41;66.80;102924.47;4888487;29;20123;-90
2022/01/30 10:03:59;;;;;;;22.38;4.20;;;;;;;6.68;67.84;102967.00;4888141;29;20385;-90
2022/01/30 10:06:34;;;;;;;28.08;4.43;;;;;;;6.25;66.45;102906.97;4903257;29;20032;-90
2022/01/30 10:09:44;;;;;;;24.17;4.38;;;;;;;6.66;67.73;102947.41;4902608;29;20027;-91
2022/01/30 10:12:28;;;;;;;25.80;4.65;;;;;;;6.81;67.21;102955.97;4826409;29;20041;-90
2022/01/30 10:15:16;;;;;;;26.15;4.60;;;;;;;7.14;66.87;102983.56;4836209;29;20488;-89
2022/01/30 10:17:51;;;;;;;23.67;3.92;;;;;;;7.03;65.78;102965.66;4874517;29;20060;-89
2022/01/30 10:20:26;;;;;;;22.40;4.35;;;;;;;6.82;65.45;102942.31;4883052;29;20034;-89
2022/01/30 10:23:26;;;;;;;29.05;4.93;;;;;;;7.13;66.49;102961.13;4883827;29;20032;-90
2022/01/30 10:25:55;;;;;;;26.88;4.38;;;;;;;6.98;65.44;102922.91;4920380;29;20429;-89
2022/01/30 10:28:40;;;;;;;23.95;4.30;;;;;;;6.93;65.59;102922.44;4904991;29;20051;-90
2022/01/30 10:31:18;;;;;;;24.48;4.90;;;;;;;7.07;65.14;102956.28;4920690;29;20083;-89
2022/01/30 10:37:10;;;;;;;25.85;4.95;;;;;;;7.42;65.59;102987.28;4260462;23;20076;-89
2022/01/30 10:39:54;;;;;;;27.70;5.30;;;;;;;7.32;65.86;102932.41;4902439;29;20461;-89
2022/01/30 10:42:38;;;;;;;28.88;6.00;;;;;;;7.45;65.31;102929.41;4902515;29;20040;-88
2022/01/30 10:45:14;;;;;;;27.23;5.03;;;;;;;7.55;63.23;102952.72;4916903;29;20029;-88
2022/01/30 10:47:52;;;;;;;;;;;;;;;;;;;;;
2022/01/30 10:50:24;;;;;;;25.35;5.30;;;;;;;8.02;62.82;102957.31;4905412;29;20036;-85
2022/01/30 10:53:03;;;;;;;23.38;4.22;;;;;;;8.03;62.82;102921.19;4901570;29;20088;-89
2022/01/30 10:55:44;;;;;;;28.77;5.00;;;;;;;8.24;62.17;102918.25;4886826;29;20089;-89
2022/01/30 10:58:20;;;;;;;25.33;4.83;;;;;;;8.52;60.60;102945.34;4902774;29;20044;-90
2022/01/30 11:00:49;;;;;;;24.10;4.57;;;;;;;8.67;59.83;102961.94;4918969;29;20032;-90
2022/01/30 11:03:41;;;;;;;24.67;4.43;;;;;;;9.05;62.08;102980.78;4903459;29;20580;-89
2022/01/30 11:06:10;;;;;;;27.88;4.18;;;;;;;8.88;58.57;102952.69;4903008;29;20024;-90
2022/01/30 11:08:40;;;;;;;29.50;4.55;;;;;;;8.67;57.50;102944.84;4902136;29;20122;-89
2022/01/30 11:11:36;;;;;;;26.45;4.97;;;;;;;8.48;58.00;102925.00;4902122;29;20040;-90
2022/01/30 11:19:43;;;;;;;24.98;5.35;;;;;;;8.52;59.54;102896.66;4920100;29;20127;-90
2022/01/30 11:22:42;;;;;;;25.52;4.85;;;;;;;8.78;59.00;102898.59;4910393;29;20047;-90
2022/01/30 11:25:21;;;;;;;36.33;5.85;;;;;;;8.67;57.88;102883.44;4898394;29;20036;-89
2022/01/30 11:27:51;;;;;;;25.02;4.60;;;;;;;9.08;58.17;102889.25;4888431;29;20074;-90
2022/01/30 11:30:20;;;;;;;18.20;4.45;;;;;;;10.00;53.98;102933.13;4919604;29;20430;-89
2022/01/30 11:32:47;;;;;;;26.65;4.43;;;;;;;9.71;52.03;102908.19;4887414;29;20426;-90
2022/01/30 11:35:15;;;;;;;26.38;4.82;;;;;;;9.35;53.50;102886.63;4902232;29;20071;-90
2022/01/30 11:37:43;;;;;;;21.55;4.20;;;;;;;9.71;53.57;102886.50;4885783;29;20060;-90
2022/01/30 11:40:27;;;;;;;23.00;4.80;;;;;;;9.89;55.44;102883.72;4886298;29;20039;-90
2022/01/30 11:43:09;;;;;;;19.10;4.20;;;;;;;9.91;52.38;102898.00;4902850;29;20043;-90
2022/01/30 11:45:35;;;;;;;19.92;4.40;;;;;;;10.41;51.97;102880.97;4903205;29;20180;-90
2022/01/30 11:48:12;;;;;;;21.48;4.07;;;;;;;10.63;51.13;102871.34;4887522;29;20115;-90
2022/01/30 11:50:38;;;;;;;20.30;4.05;;;;;;;10.79;49.57;102880.53;4903302;29;20543;-90
2022/01/30 11:53:14;;;;;;;20.95;4.10;;;;;;;10.77;50.38;102847.28;4888050;29;20107;-90
2022/01/30 11:55:56;;;;;;;19.08;3.92;;;;;;;11.56;49.88;102870.19;4905744;29;20090;-90
2022/01/30 11:58:32;;;;;;;17.58;3.85;;;;;;;11.52;48.06;102897.88;4901974;29;20427;-90
2022/01/30 12:01:21;;;;;;;24.15;4.43;;;;;;;11.19;47.77;102890.59;4903229;29;20040;-90
2022/01/30 12:04:09;;;;;;;22.75;4.07;;;;;;;13.15;49.69;102911.84;4889007;29;20040;-90
2022/01/30 12:06:52;;;;;;;18.58;3.92;;;;;;;14.23;44.91;102846.09;4901563;29;20028;-90
2022/01/30 12:09:29;;;;;;;20.50;4.55;;;;;;;14.80;43.11;102876.41;4902263;29;20024;-90
2022/01/30 12:11:59;;;;;;;17.50;4.00;;;;;;;13.99;41.37;102855.47;4901417;29;20040;-90
2022/01/30 12:14:29;;;;;;;15.65;4.28;;;;;;;13.26;42.44;102915.16;4902685;29;20040;-90
2022/01/30 12:16:57;;;;;;;18.40;4.07;;;;;;;12.43;43.15;102901.19;4902214;29;20039;-91
2022/01/30 12:19:51;;;;;;;;;;;;;;;;;;;;;
2022/01/30 12:22:29;;;;;;;;;;;;;;;;;;;;;
2022/01/30 12:25:24;;;;;;;19.38;4.10;;;;;;;16.22;42.64;102902.75;4916848;29;20035;-89
2022/01/30 12:27:56;;;;;;;18.42;3.72;;;;;;;18.55;34.72;102876.38;4917221;29;20076;-90
2022/01/30 12:30:39;;;;;;;;;;;;;;;19.85;36.49;102893.41;4917093;29;20116;-90
2022/01/30 12:33:30;;;;;;;20.33;4.15;;;;;;;20.84;34.24;102895.13;4899778;29;19918;-90
2022/01/30 12:36:14;;;;;;;16.67;4.05;;;;;;;21.33;27.30;102861.88;4898969;29;20032;-89
2022/01/30 12:38:40;;;;;;;20.30;4.80;;;;;;;21.64;26.17;102855.19;4899255;29;20156;-90
2022/01/30 12:41:23;;;;;;;16.10;4.05;;;;;;;23.55;28.77;102823.56;4916581;29;20470;-90
2022/01/30 12:43:58;;;;;;;18.55;3.70;;;;;;;25.79;24.79;102810.41;4899737;29;20437;-90
2022/01/30 12:46:27;;;;;;;18.35;4.93;;;;;;;26.90;21.79;102799.00;4899067;29;20060;-90
2022/01/30 12:49:00;;;;;;;17.35;4.32;;;;;;;27.78;22.45;102829.47;4899285;29;20060;-89
2022/01/30 12:51:27;;;;;;;16.92;3.67;;;;;;;26.75;19.63;102813.75;4916420;29;20540;-89
2022/01/30 12:53:56;;;;;;;16.33;3.67;;;;;;;26.07;19.48;102831.44;4916035;29;20040;-90
2022/01/30 12:56:24;;;;;;;17.10;3.47;;;;;;;24.08;20.85;102778.78;4899599;29;20047;-90